createdAt,value
2023-01-18T00:01:19.936Z,0.96
2023-01-18T00:03:46.440Z,0.91
2023-01-18T00:06:12.792Z,0.93
2023-01-18T00:08:39.607Z,0.86
2023-01-18T00:11:07.436Z,0.80
2023-01-18T00:13:33.897Z,0.96
2023-01-18T00:16:04.054Z,0.97
2023-01-18T00:18:30.745Z,0.95
2023-01-18T00:21:00.740Z,0.90
2023-01-18T00:23:27.343Z,0.87
2023-01-18T00:26:05.111Z,0.72
2023-01-18T00:28:31.883Z,0.73
2023-01-18T00:30:58.256Z,0.74
2023-01-18T00:33:24.624Z,0.77
2023-01-18T00:35:57.187Z,0.84
2023-01-18T00:38:25.138Z,0.72
2023-01-18T00:40:51.857Z,0.77
2023-01-18T00:43:36.803Z,0.73
2023-01-18T00:46:03.222Z,0.72
2023-01-18T00:48:29.911Z,0.61
2023-01-18T00:50:56.440Z,0.70
2023-01-18T00:53:22.894Z,0.64
2023-01-18T00:55:49.347Z,0.67
2023-01-18T00:58:15.713Z,0.77
2023-01-18T01:00:43.168Z,0.44
2023-01-18T01:03:09.521Z,0.55
2023-01-18T01:05:55.895Z,0.50
2023-01-18T01:08:23.572Z,0.58
2023-01-18T01:10:51.499Z,0.64
2023-01-18T01:13:37.869Z,0.66
2023-01-18T01:16:27.045Z,0.70
2023-01-18T01:19:12.195Z,0.53
2023-01-18T01:21:57.695Z,0.57
2023-01-18T01:24:43.570Z,0.36
2023-01-18T01:27:11.203Z,0.51
2023-01-18T01:29:37.880Z,0.63
2023-01-18T01:32:04.964Z,0.60
2023-01-18T01:34:31.851Z,0.57
2023-01-18T01:36:58.374Z,0.51
2023-01-18T01:39:25.036Z,0.61
2023-01-18T01:41:51.489Z,0.73
2023-01-18T01:44:18.005Z,0.76
2023-01-18T01:46:58.949Z,0.75
2023-01-18T01:49:28.431Z,0.62
2023-01-18T01:51:57.044Z,0.67
2023-01-18T01:54:23.364Z,0.73
2023-01-18T01:56:52.163Z,0.71
2023-01-18T01:59:18.926Z,0.73
2023-01-18T02:01:46.331Z,0.77
2023-01-18T02:04:12.827Z,0.78
2023-01-18T02:06:39.706Z,0.65
2023-01-18T02:09:07.663Z,0.72
2023-01-18T02:11:34.228Z,0.71
2023-01-18T02:14:02.635Z,0.71
2023-01-18T02:16:37.861Z,0.86
2023-01-18T02:19:04.295Z,0.73
2023-01-18T02:21:36.838Z,0.75
2023-01-18T02:24:24.908Z,0.86
2023-01-18T02:26:59.699Z,0.83
2023-01-18T02:29:28.768Z,1.01
2023-01-18T02:32:18.155Z,1.11
2023-01-18T02:34:47.335Z,1.12
2023-01-18T02:37:16.393Z,1.14
2023-01-18T02:39:54.595Z,1.14
2023-01-18T02:42:42.493Z,0.97
2023-01-18T02:45:46.733Z,1.08
2023-01-18T02:48:14.311Z,1.09
2023-01-18T02:50:40.754Z,1.16
2023-01-18T02:53:07.074Z,0.98
2023-01-18T02:55:48.181Z,1.08
2023-01-18T02:58:17.893Z,1.16
2023-01-18T03:00:49.894Z,1.18
2023-01-18T03:03:17.192Z,1.19
2023-01-18T03:05:44.075Z,1.16
2023-01-18T03:08:17.989Z,1.06
2023-01-18T03:10:50.386Z,1.08
2023-01-18T03:13:21.203Z,1.18
2023-01-18T03:15:47.549Z,1.15
2023-01-18T03:18:22.095Z,1.18
2023-01-18T03:20:52.487Z,1.10
2023-01-18T03:23:38.145Z,1.13
2023-01-18T03:26:18.264Z,1.01
2023-01-18T03:29:04.369Z,1.06
2023-01-18T03:31:56.979Z,1.05
2023-01-18T03:34:33.575Z,1.10
2023-01-18T03:37:02.824Z,1.14
2023-01-18T03:39:32.387Z,1.20
2023-01-18T03:42:00.654Z,1.17
2023-01-18T03:44:38.443Z,1.19
2023-01-18T03:47:06.117Z,0.98
2023-01-18T03:49:38.603Z,1.13
2023-01-18T03:52:23.617Z,1.15
2023-01-18T03:54:52.707Z,1.20
2023-01-18T03:57:40.408Z,1.17
2023-01-18T04:00:07.938Z,1.08
2023-01-18T04:02:34.364Z,1.21
2023-01-18T04:05:03.645Z,1.28
2023-01-18T04:07:31.714Z,1.13
2023-01-18T04:09:58.591Z,1.21
2023-01-18T04:12:25.058Z,1.02
2023-01-18T04:14:51.479Z,0.80
2023-01-18T04:17:18.237Z,1.08
2023-01-18T04:19:44.673Z,1.15
2023-01-18T04:22:11.074Z,1.25
2023-01-18T04:24:37.483Z,1.14
2023-01-18T04:27:04.296Z,1.13
2023-01-18T04:29:30.747Z,1.16
2023-01-18T04:31:57.072Z,1.20
2023-01-18T04:34:23.874Z,1.26
2023-01-18T04:36:50.535Z,1.17
2023-01-18T04:39:17.026Z,1.23
2023-01-18T04:41:43.611Z,1.30
2023-01-18T04:44:10.149Z,1.43
2023-01-18T04:46:38.470Z,1.32
2023-01-18T04:49:05.824Z,1.28
2023-01-18T04:51:32.590Z,1.29
2023-01-18T04:53:59.321Z,1.39
2023-01-18T04:56:25.680Z,1.46
2023-01-18T04:58:54.869Z,1.49
2023-01-18T05:01:25.481Z,1.54
2023-01-18T05:03:55.186Z,1.41
2023-01-18T05:06:21.960Z,1.31
2023-01-18T05:08:48.289Z,1.26
2023-01-18T05:11:19.209Z,1.31
2023-01-18T05:13:46.046Z,1.41
2023-01-18T05:16:16.893Z,1.52
2023-01-18T05:18:43.829Z,1.53
2023-01-18T05:21:10.236Z,1.40
2023-01-18T05:23:40.225Z,1.34
2023-01-18T05:26:14.367Z,1.42
2023-01-18T05:28:41.375Z,1.53
2023-01-18T05:31:07.876Z,1.52
2023-01-18T05:33:34.311Z,1.48
2023-01-18T05:36:00.719Z,1.38
2023-01-18T05:38:27.034Z,1.35
2023-01-18T05:40:54.720Z,1.34
2023-01-18T05:43:22.079Z,1.39
2023-01-18T05:45:48.755Z,1.35
2023-01-18T05:48:15.446Z,1.26
2023-01-18T05:50:43.681Z,1.27
2023-01-18T05:53:10.634Z,1.24
2023-01-18T05:55:37.254Z,1.24
2023-01-18T05:58:03.594Z,1.28
2023-01-18T06:00:29.991Z,1.26
2023-01-18T06:02:56.690Z,1.27
2023-01-18T06:05:24.049Z,1.27
2023-01-18T06:07:50.651Z,1.17
2023-01-18T06:10:17.370Z,1.08
2023-01-18T06:12:44.667Z,1.22
2023-01-18T06:15:11.888Z,1.37
2023-01-18T06:17:38.778Z,1.35
2023-01-18T06:20:06.121Z,1.37
2023-01-18T06:22:32.712Z,1.17
2023-01-18T06:24:59.158Z,1.24
2023-01-18T06:27:25.635Z,1.36
2023-01-18T06:29:52.039Z,1.41
2023-01-18T06:32:18.394Z,1.47
2023-01-18T06:34:44.729Z,1.43
2023-01-18T06:37:11.079Z,1.37
2023-01-18T06:39:37.401Z,1.33
2023-01-18T06:42:03.884Z,1.47
2023-01-18T06:44:30.217Z,1.32
2023-01-18T06:46:56.591Z,1.31
2023-01-18T06:49:22.922Z,1.26
2023-01-18T06:51:49.255Z,1.08
2023-01-18T06:54:16.648Z,1.22
2023-01-18T06:56:42.987Z,1.39
2023-01-18T06:59:09.411Z,1.19
2023-01-18T07:01:35.912Z,1.32
2023-01-18T07:04:02.557Z,1.18
2023-01-18T07:06:28.920Z,1.13
2023-01-18T07:08:55.284Z,1.10
2023-01-18T07:11:21.617Z,1.01
2023-01-18T07:13:49.402Z,1.13
2023-01-18T07:16:18.622Z,1.08
2023-01-18T07:18:46.737Z,1.22
2023-01-18T07:21:15.140Z,1.17
2023-01-18T07:23:42.303Z,1.20
2023-01-18T07:26:08.919Z,1.24
2023-01-18T07:28:36.214Z,1.23
2023-01-18T07:31:03.359Z,1.12
2023-01-18T07:33:30.324Z,1.04
2023-01-18T07:35:57.363Z,1.25
2023-01-18T07:38:24.183Z,1.15
2023-01-18T07:40:50.611Z,1.24
2023-01-18T07:43:17.412Z,1.32
2023-01-18T07:45:44.121Z,1.39
2023-01-18T07:48:10.613Z,1.42
2023-01-18T07:50:36.999Z,1.33
2023-01-18T07:53:12.187Z,1.22
2023-01-18T07:55:40.698Z,1.25
2023-01-18T07:58:07.130Z,1.22
2023-01-18T08:00:34.763Z,1.47
2023-01-18T08:03:01.492Z,1.50
2023-01-18T08:05:29.674Z,1.37
2023-01-18T08:07:56.009Z,1.32
2023-01-18T08:10:22.510Z,1.29
2023-01-18T08:12:49.079Z,1.41
2023-01-18T08:15:15.643Z,1.44
2023-01-18T08:17:43.379Z,1.54
2023-01-18T08:20:10.214Z,1.43
2023-01-18T08:22:36.903Z,1.45
2023-01-18T08:25:03.821Z,1.31
2023-01-18T08:27:31.229Z,1.31
2023-01-18T08:29:57.565Z,1.46
2023-01-18T08:32:25.487Z,1.37
2023-01-18T08:34:51.846Z,1.43
2023-01-18T08:37:18.214Z,1.63
2023-01-18T08:39:44.691Z,1.59
2023-01-18T08:42:11.963Z,1.60
2023-01-18T08:44:38.323Z,1.59
2023-01-18T08:47:04.765Z,1.64
2023-01-18T08:49:32.895Z,1.65
2023-01-18T08:51:59.271Z,1.57
2023-01-18T08:54:26.059Z,1.60
2023-01-18T08:56:52.560Z,1.65
2023-01-18T08:59:20.090Z,1.67
2023-01-18T09:01:46.495Z,1.71
2023-01-18T09:04:13.759Z,1.78
2023-01-18T09:06:40.083Z,1.70
2023-01-18T09:09:06.517Z,1.75
2023-01-18T09:11:33.044Z,1.89
2023-01-18T09:14:01.740Z,1.88
2023-01-18T09:16:28.930Z,1.96
2023-01-18T09:18:56.653Z,1.91
2023-01-18T09:21:23.412Z,1.89
2023-01-18T09:23:50.046Z,1.72
2023-01-18T09:26:17.148Z,1.81
2023-01-18T09:28:44.827Z,1.80
2023-01-18T09:31:12.344Z,1.82
2023-01-18T09:33:39.695Z,1.87
2023-01-18T09:36:09.804Z,1.95
2023-01-18T09:38:37.185Z,1.85
2023-01-18T09:41:06.174Z,1.94
2023-01-18T09:43:41.089Z,1.90
2023-01-18T09:46:17.784Z,2.16
2023-01-18T09:48:44.732Z,1.97
2023-01-18T09:51:22.794Z,2.09
2023-01-18T09:53:55.253Z,2.14
2023-01-18T09:56:24.664Z,2.27
2023-01-18T09:59:03.701Z,2.39
2023-01-18T10:01:32.070Z,2.47
2023-01-18T10:04:02.199Z,2.29
2023-01-18T10:06:31.003Z,2.45
2023-01-18T10:09:06.223Z,2.46
2023-01-18T10:11:37.949Z,2.23
2023-01-18T10:14:23.231Z,2.18
2023-01-18T10:16:55.669Z,2.17
2023-01-18T10:19:25.399Z,2.29
2023-01-18T10:21:58.283Z,2.09
2023-01-18T10:24:31.041Z,2.17
2023-01-18T10:27:03.774Z,2.11
2023-01-18T10:29:54.580Z,1.93
2023-01-18T10:32:23.626Z,2.07
2023-01-18T10:34:51.710Z,2.05
2023-01-18T10:37:26.399Z,2.08
2023-01-18T10:40:02.683Z,1.93
2023-01-18T10:42:46.660Z,2.00
2023-01-18T10:45:20.443Z,2.14
2023-01-18T10:47:51.065Z,2.16
2023-01-18T10:50:22.531Z,1.97
2023-01-18T10:52:49.697Z,1.93
2023-01-18T10:55:17.752Z,2.13
2023-01-18T10:57:49.973Z,1.96
2023-01-18T11:00:22.580Z,2.08
2023-01-18T11:02:53.207Z,2.11
2023-01-18T11:05:22.771Z,2.09
2023-01-18T11:08:09.053Z,2.19
2023-01-18T11:10:37.992Z,2.19
2023-01-18T11:13:22.693Z,2.24
2023-01-18T11:15:52.019Z,1.94
2023-01-18T11:18:26.507Z,1.88
2023-01-18T11:20:55.372Z,1.98
2023-01-18T11:23:25.329Z,1.86
2023-01-18T11:25:55.913Z,1.81
2023-01-18T11:28:24.510Z,2.08
2023-01-18T11:30:52.723Z,2.08
2023-01-18T11:33:20.296Z,1.88
2023-01-18T11:35:46.956Z,1.82
2023-01-18T11:38:41.072Z,2.05
2023-01-18T11:41:13.674Z,2.03
2023-01-18T11:43:42.479Z,2.07
2023-01-18T11:46:11.013Z,2.08
2023-01-18T11:48:57.731Z,1.91
2023-01-18T11:51:30.992Z,2.04
2023-01-18T11:54:00.504Z,2.01
2023-01-18T11:56:35.567Z,2.25
2023-01-18T11:59:03.509Z,2.23
2023-01-18T12:01:51.319Z,2.29
2023-01-18T12:04:21.571Z,2.12
2023-01-18T12:06:54.746Z,2.16
2023-01-18T12:09:31.065Z,2.29
2023-01-18T12:12:06.518Z,2.07
2023-01-18T12:14:46.509Z,2.10
2023-01-18T12:17:25.933Z,2.08
2023-01-18T12:19:55.081Z,2.19
2023-01-18T12:22:22.175Z,2.07
2023-01-18T12:25:01.607Z,2.04
2023-01-18T12:27:43.902Z,1.90
2023-01-18T12:30:14.130Z,1.88
2023-01-18T12:32:52.638Z,2.04
2023-01-18T12:35:28.275Z,1.92
2023-01-18T12:37:54.862Z,2.18
2023-01-18T12:40:50.790Z,1.99
2023-01-18T12:43:37.827Z,2.10
2023-01-18T12:46:11.489Z,2.04
2023-01-18T12:48:56.417Z,2.00
2023-01-18T12:51:24.651Z,2.01
2023-01-18T12:53:55.637Z,2.15
2023-01-18T12:56:28.008Z,2.06
2023-01-18T12:58:56.824Z,2.00
2023-01-18T13:01:25.891Z,2.07
2023-01-18T13:03:56.641Z,2.05
2023-01-18T13:06:23.142Z,2.05
2023-01-18T13:08:52.534Z,2.01
2023-01-18T13:11:24.868Z,1.65
2023-01-18T13:13:55.170Z,1.77
2023-01-18T13:16:45.220Z,1.70
2023-01-18T13:19:20.519Z,1.77
2023-01-18T13:22:07.094Z,1.86
2023-01-18T13:24:40.851Z,1.77
2023-01-18T13:27:11.905Z,1.75
2023-01-18T13:29:39.371Z,1.82
2023-01-18T13:32:28.043Z,1.65
2023-01-18T13:35:20.646Z,1.45
2023-01-18T13:38:09.545Z,1.50
2023-01-18T13:40:39.382Z,1.47
2023-01-18T13:43:06.408Z,1.69
2023-01-18T13:45:32.840Z,1.59
2023-01-18T13:48:04.936Z,1.59
2023-01-18T13:50:31.531Z,1.36
2023-01-18T13:53:14.317Z,1.51
2023-01-18T13:56:08.725Z,1.27
2023-01-18T13:58:37.655Z,1.27
2023-01-18T14:01:06.570Z,1.27
2023-01-18T14:03:34.446Z,1.08
2023-01-18T14:06:08.954Z,1.26
2023-01-18T14:08:39.849Z,1.18
2023-01-18T14:11:08.110Z,1.25
2023-01-18T14:13:48.150Z,1.03
2023-01-18T14:16:17.439Z,1.04
2023-01-18T14:18:58.661Z,1.09
2023-01-18T14:21:44.744Z,1.16
2023-01-18T14:24:27.305Z,1.28
2023-01-18T14:26:54.640Z,0.98
2023-01-18T14:29:39.532Z,1.06
2023-01-18T14:32:06.996Z,1.22
2023-01-18T14:34:36.084Z,1.10
2023-01-18T14:37:02.832Z,1.22
2023-01-18T14:39:30.231Z,1.15
2023-01-18T14:41:58.433Z,1.22
2023-01-18T14:44:25.712Z,1.02
2023-01-18T14:46:53.881Z,1.00
2023-01-18T14:49:40.401Z,0.99
2023-01-18T14:52:08.626Z,1.02
2023-01-18T14:54:35.211Z,0.99
2023-01-18T14:57:04.501Z,1.11
2023-01-18T14:59:32.046Z,0.93
2023-01-18T15:02:18.965Z,0.96
2023-01-18T15:04:47.403Z,1.08
2023-01-18T15:07:17.531Z,0.80
2023-01-18T15:09:45.545Z,0.75
2023-01-18T15:12:14.009Z,0.86
2023-01-18T15:14:44.119Z,1.10
2023-01-18T15:17:12.603Z,1.08
2023-01-18T15:19:40.621Z,1.14
2023-01-18T15:22:09.840Z,1.09
2023-01-18T15:24:40.704Z,1.26
2023-01-18T15:27:12.173Z,1.37
2023-01-18T15:29:38.962Z,1.26
2023-01-18T15:32:07.917Z,1.26
2023-01-18T15:34:36.623Z,1.26
2023-01-18T15:37:05.471Z,1.28
2023-01-18T15:39:35.369Z,1.08
2023-01-18T15:42:06.445Z,1.29
2023-01-18T15:44:35.840Z,1.28
2023-01-18T15:47:12.753Z,1.30
2023-01-18T15:49:42.420Z,1.36
2023-01-18T15:52:08.797Z,1.30
2023-01-18T15:54:35.164Z,1.25
2023-01-18T15:57:13.315Z,1.39
2023-01-18T15:59:41.203Z,1.28
2023-01-18T16:02:15.691Z,1.30
2023-01-18T16:04:42.061Z,1.35
2023-01-18T16:07:27.281Z,1.34
2023-01-18T16:10:11.973Z,1.15
2023-01-18T16:12:38.395Z,1.09
2023-01-18T16:15:04.954Z,1.11
2023-01-18T16:17:31.926Z,1.12
2023-01-18T16:19:59.606Z,1.20
2023-01-18T16:22:28.154Z,1.38
2023-01-18T16:24:57.648Z,1.43
2023-01-18T16:27:25.124Z,1.37
2023-01-18T16:29:55.992Z,1.38
2023-01-18T16:32:25.445Z,1.45
2023-01-18T16:34:52.659Z,1.46
2023-01-18T16:37:19.188Z,1.41
2023-01-18T16:39:50.849Z,1.41
2023-01-18T16:42:19.813Z,1.33
2023-01-18T16:44:48.217Z,1.34
2023-01-18T16:47:16.371Z,1.34
2023-01-18T16:49:44.130Z,1.41
2023-01-18T16:52:13.839Z,1.44
2023-01-18T16:54:42.489Z,1.35
2023-01-18T16:57:16.570Z,1.18
2023-01-18T16:59:43.686Z,1.20
2023-01-18T17:02:10.129Z,1.14
2023-01-18T17:04:36.633Z,1.12
2023-01-18T17:07:04.025Z,1.23
2023-01-18T17:09:32.466Z,1.14
2023-01-18T17:12:01.139Z,1.09
2023-01-18T17:14:27.479Z,1.08
2023-01-18T17:16:54.478Z,1.16
2023-01-18T17:19:21.958Z,1.12
2023-01-18T17:21:49.093Z,1.06
2023-01-18T17:24:16.118Z,0.91
2023-01-18T17:26:42.939Z,1.02
2023-01-18T17:29:13.327Z,0.98
2023-01-18T17:31:51.412Z,0.98
2023-01-18T17:34:23.309Z,1.00
2023-01-18T17:36:52.319Z,1.03
2023-01-18T17:39:20.094Z,0.98
2023-01-18T17:41:46.633Z,1.08
2023-01-18T17:44:13.171Z,1.04
2023-01-18T17:46:39.518Z,0.98
2023-01-18T17:49:05.963Z,1.00
2023-01-18T17:51:35.392Z,0.93
2023-01-18T17:54:03.570Z,0.96
2023-01-18T17:56:30.259Z,0.91
2023-01-18T17:58:56.611Z,0.96
2023-01-18T18:01:23.306Z,1.06
2023-01-18T18:03:50.908Z,0.96
2023-01-18T18:06:30.116Z,1.04
2023-01-18T18:09:03.728Z,1.08
2023-01-18T18:11:30.177Z,1.15
2023-01-18T18:13:58.768Z,1.00
2023-01-18T18:16:25.739Z,0.95
2023-01-18T18:18:52.163Z,0.90
2023-01-18T18:21:18.856Z,0.95
2023-01-18T18:23:45.811Z,0.96
2023-01-18T18:26:12.200Z,0.94
2023-01-18T18:28:38.853Z,0.95
2023-01-18T18:31:05.337Z,0.86
2023-01-18T18:33:34.604Z,1.04
2023-01-18T18:36:01.370Z,0.91
2023-01-18T18:38:27.803Z,0.94
2023-01-18T18:40:54.709Z,0.84
2023-01-18T18:43:21.479Z,0.95
2023-01-18T18:45:47.844Z,0.93
2023-01-18T18:48:14.318Z,0.97
2023-01-18T18:50:41.150Z,0.74
2023-01-18T18:53:07.944Z,0.76
2023-01-18T18:55:34.268Z,0.75
2023-01-18T18:58:00.966Z,0.76
2023-01-18T19:00:27.433Z,0.78
2023-01-18T19:03:04.109Z,0.78
2023-01-18T19:05:31.246Z,0.82
2023-01-18T19:07:57.911Z,0.84
2023-01-18T19:10:27.430Z,0.73
2023-01-18T19:12:54.717Z,0.74
2023-01-18T19:15:21.505Z,0.64
2023-01-18T19:17:51.933Z,0.75
2023-01-18T19:20:19.797Z,0.73
2023-01-18T19:22:50.220Z,0.81
2023-01-18T19:25:17.013Z,0.88
2023-01-18T19:27:43.460Z,0.83
2023-01-18T19:30:18.540Z,0.71
2023-01-18T19:32:46.043Z,0.75
2023-01-18T19:35:12.743Z,0.71
2023-01-18T19:37:40.344Z,0.77
2023-01-18T19:40:08.214Z,0.81
2023-01-18T19:42:34.761Z,0.74
2023-01-18T19:45:03.986Z,0.75
2023-01-18T19:47:31.219Z,0.82
2023-01-18T19:49:57.881Z,0.74
2023-01-18T19:52:24.686Z,0.83
2023-01-18T19:54:51.133Z,0.64
2023-01-18T19:57:17.454Z,0.71
2023-01-18T19:59:43.832Z,0.68
2023-01-18T20:02:16.164Z,0.70
2023-01-18T20:04:43.427Z,0.69
2023-01-18T20:07:10.973Z,0.76
2023-01-18T20:09:43.136Z,0.87
2023-01-18T20:12:12.449Z,0.81
2023-01-18T20:14:41.537Z,0.83
2023-01-18T20:17:12.123Z,0.90
2023-01-18T20:19:41.944Z,0.80
2023-01-18T20:22:08.347Z,0.75
2023-01-18T20:24:34.686Z,0.74
2023-01-18T20:27:14.935Z,0.97
2023-01-18T20:29:42.119Z,1.02
2023-01-18T20:32:15.517Z,0.81
2023-01-18T20:34:44.680Z,0.92
2023-01-18T20:37:11.890Z,1.03
2023-01-18T20:39:38.689Z,1.01
2023-01-18T20:42:05.303Z,0.94
2023-01-18T20:44:31.662Z,0.97
2023-01-18T20:46:58.051Z,1.07
2023-01-18T20:49:33.198Z,1.08
2023-01-18T20:52:04.924Z,0.93
2023-01-18T20:54:31.248Z,1.07
2023-01-18T20:56:58.791Z,0.96
2023-01-18T20:59:25.408Z,0.97
2023-01-18T21:01:52.943Z,0.94
2023-01-18T21:04:20.706Z,0.80
2023-01-18T21:06:49.766Z,0.79
2023-01-18T21:09:16.545Z,0.86
2023-01-18T21:11:42.874Z,0.82
2023-01-18T21:14:09.412Z,0.78
2023-01-18T21:16:36.441Z,0.70
2023-01-18T21:19:03.075Z,0.61
2023-01-18T21:21:31.679Z,0.67
2023-01-18T21:23:58.510Z,0.63
2023-01-18T21:26:24.903Z,0.64
2023-01-18T21:28:51.475Z,0.64
2023-01-18T21:31:17.950Z,0.64
2023-01-18T21:33:44.347Z,0.72
2023-01-18T21:36:14.628Z,0.76
2023-01-18T21:38:41.411Z,0.60
2023-01-18T21:41:27.684Z,0.69
2023-01-18T21:44:12.951Z,0.72
2023-01-18T21:46:44.296Z,0.74
2023-01-18T21:49:39.774Z,0.72
2023-01-18T21:52:35.548Z,0.64
2023-01-18T21:55:01.973Z,0.54
2023-01-18T21:57:28.317Z,0.38
2023-01-18T21:59:54.693Z,0.37
2023-01-18T22:02:22.468Z,0.32
2023-01-18T22:05:00.914Z,0.22
2023-01-18T22:07:28.203Z,0.31
2023-01-18T22:10:04.633Z,0.32
2023-01-18T22:12:34.779Z,0.42
2023-01-18T22:15:02.092Z,0.48
2023-01-18T22:17:28.720Z,0.38
2023-01-18T22:19:55.360Z,0.07
2023-01-18T22:22:21.729Z,0.34
2023-01-18T22:24:48.118Z,0.33
2023-01-18T22:27:14.455Z,0.15
2023-01-18T22:29:40.787Z,0.30
2023-01-18T22:32:07.195Z,0.29
2023-01-18T22:34:33.939Z,0.28
2023-01-18T22:37:00.470Z,0.49
2023-01-18T22:39:26.808Z,0.31
2023-01-18T22:41:53.164Z,0.23
2023-01-18T22:44:19.551Z,0.32
2023-01-18T22:46:46.989Z,0.34
2023-01-18T22:49:13.378Z,0.27
2023-01-18T22:51:39.701Z,0.22
2023-01-18T22:54:06.278Z,0.39
2023-01-18T22:56:32.894Z,0.46
2023-01-18T22:59:00.458Z,0.47
2023-01-18T23:01:30.917Z,0.32
2023-01-18T23:03:58.630Z,0.33
2023-01-18T23:06:25.093Z,0.34
2023-01-18T23:08:52.047Z,0.46
2023-01-18T23:11:20.862Z,0.44
2023-01-18T23:14:07.559Z,0.54
2023-01-18T23:16:53.046Z,0.46
2023-01-18T23:19:19.799Z,0.32
2023-01-18T23:21:46.148Z,0.37
2023-01-18T23:24:12.582Z,0.34
2023-01-18T23:26:46.340Z,0.37
2023-01-18T23:29:12.774Z,0.23
2023-01-18T23:31:39.368Z,0.10
2023-01-18T23:34:05.704Z,0.10
2023-01-18T23:36:32.082Z,0.30
2023-01-18T23:39:17.013Z,0.39
2023-01-18T23:42:02.044Z,0.47
2023-01-18T23:44:47.208Z,0.35
2023-01-18T23:47:32.234Z,0.42
2023-01-18T23:50:17.064Z,0.36
2023-01-18T23:53:04.193Z,0.24
2023-01-18T23:55:30.633Z,0.30
2023-01-18T23:57:56.982Z,0.23
